sensor_id;sensor_type;location;lat;lon;timestamp;pressure;altitude;pressure_sealevel;temperature;humidity
40850;BME280;26571;41.610;25.380;2023-05-12T00:01:23;98723.91;;;10.70;70.00
40850;BME280;26571;41.610;25.380;2023-05-12T00:03:48;98724.84;;;10.69;70.16
40850;BME280;26571;41.610;25.380;2023-05-12T00:06:13;98725.03;;;10.67;69.94
40850;BME280;26571;41.610;25.380;2023-05-12T00:08:39;98725.03;;;10.67;70.40
40850;BME280;26571;41.610;25.380;2023-05-12T00:11:04;98720.91;;;10.65;70.95
40850;BME280;26571;41.610;25.380;2023-05-12T00:13:30;98727.00;;;10.65;71.69
40850;BME280;26571;41.610;25.380;2023-05-12T00:15:55;98727.31;;;10.62;72.20
40850;BME280;26571;41.610;25.380;2023-05-12T00:18:23;98730.25;;;10.59;72.87
40850;BME280;26571;41.610;25.380;2023-05-12T00:20:48;98732.72;;;10.52;73.43
40850;BME280;26571;41.610;25.380;2023-05-12T00:23:14;98727.97;;;10.56;73.40
40850;BME280;26571;41.610;25.380;2023-05-12T00:25:39;98720.81;;;10.40;74.45
40850;BME280;26571;41.610;25.380;2023-05-12T00:28:04;98725.91;;;10.42;75.23
40850;BME280;26571;41.610;25.380;2023-05-12T00:30:30;98728.84;;;10.30;76.21
40850;BME280;26571;41.610;25.380;2023-05-12T00:32:55;98726.03;;;10.32;76.20
40850;BME280;26571;41.610;25.380;2023-05-12T00:35:21;98718.63;;;10.27;76.64
40850;BME280;26571;41.610;25.380;2023-05-12T00:37:46;98734.94;;;10.31;76.87
40850;BME280;26571;41.610;25.380;2023-05-12T00:40:12;98725.53;;;10.28;77.35
40850;BME280;26571;41.610;25.380;2023-05-12T00:42:37;98735.31;;;10.18;78.26
40850;BME280;26571;41.610;25.380;2023-05-12T00:45:03;98726.75;;;10.16;78.70
40850;BME280;26571;41.610;25.380;2023-05-12T00:47:29;98725.72;;;10.09;79.43
40850;BME280;26571;41.610;25.380;2023-05-12T00:49:55;98717.56;;;10.20;78.81
40850;BME280;26571;41.610;25.380;2023-05-12T00:52:21;98685.59;;;10.07;78.83
40850;BME280;26571;41.610;25.380;2023-05-12T00:54:47;98716.16;;;10.26;78.67
40850;BME280;26571;41.610;25.380;2023-05-12T00:57:13;98717.31;;;10.31;78.60
40850;BME280;26571;41.610;25.380;2023-05-12T00:59:38;98716.34;;;10.32;78.50
40850;BME280;26571;41.610;25.380;2023-05-12T01:02:04;98720.81;;;10.40;78.35
40850;BME280;26571;41.610;25.380;2023-05-12T01:04:30;98725.22;;;10.31;78.53
40850;BME280;26571;41.610;25.380;2023-05-12T01:07:05;98716.84;;;10.36;78.44
40850;BME280;26571;41.610;25.380;2023-05-12T01:09:34;98720.88;;;10.22;79.15
40850;BME280;26571;41.610;25.380;2023-05-12T01:12:00;98718.22;;;10.22;79.67
40850;BME280;26571;41.610;25.380;2023-05-12T01:14:25;98699.41;;;10.09;79.79
40850;BME280;26571;41.610;25.380;2023-05-12T01:16:52;98719.78;;;10.25;80.03
40850;BME280;26571;41.610;25.380;2023-05-12T01:21:56;98725.84;;;10.25;80.70
40850;BME280;26571;41.610;25.380;2023-05-12T01:24:23;98727.19;;;10.29;80.33
40850;BME280;26571;41.610;25.380;2023-05-12T01:26:51;98722.25;;;10.26;80.62
40850;BME280;26571;41.610;25.380;2023-05-12T01:29:17;98729.47;;;10.24;80.99
40850;BME280;26571;41.610;25.380;2023-05-12T01:31:43;98725.53;;;10.28;80.97
40850;BME280;26571;41.610;25.380;2023-05-12T01:34:16;98719.59;;;10.26;81.35
40850;BME280;26571;41.610;25.380;2023-05-12T01:36:43;98719.94;;;10.31;81.25
40850;BME280;26571;41.610;25.380;2023-05-12T01:39:09;98724.91;;;10.34;81.53
40850;BME280;26571;41.610;25.380;2023-05-12T01:41:34;98724.41;;;10.31;81.86
40850;BME280;26571;41.610;25.380;2023-05-12T01:44:00;98724.06;;;10.34;82.11
40850;BME280;26571;41.610;25.380;2023-05-12T01:46:25;98720.94;;;10.30;82.40
40850;BME280;26571;41.610;25.380;2023-05-12T01:48:51;98724.41;;;10.31;82.60
40850;BME280;26571;41.610;25.380;2023-05-12T01:51:16;98720.13;;;10.30;83.06
40850;BME280;26571;41.610;25.380;2023-05-12T01:53:41;98726.84;;;10.32;82.99
40850;BME280;26571;41.610;25.380;2023-05-12T01:56:07;98718.94;;;10.24;83.70
40850;BME280;26571;41.610;25.380;2023-05-12T01:58:32;98718.44;;;10.29;83.18
40850;BME280;26571;41.610;25.380;2023-05-12T02:00:58;98719.94;;;10.31;82.97
40850;BME280;26571;41.610;25.380;2023-05-12T02:03:23;98720.31;;;10.37;82.81
40850;BME280;26571;41.610;25.380;2023-05-12T02:05:48;98723.25;;;10.33;83.70
40850;BME280;26571;41.610;25.380;2023-05-12T02:08:14;98723.56;;;10.30;83.49
40850;BME280;26571;41.610;25.380;2023-05-12T02:10:39;98727.19;;;10.29;83.58
40850;BME280;26571;41.610;25.380;2023-05-12T02:13:04;98720.25;;;10.28;83.78
40850;BME280;26571;41.610;25.380;2023-05-12T02:15:30;98722.31;;;10.17;84.53
40850;BME280;26571;41.610;25.380;2023-05-12T02:17:55;98717.34;;;10.14;84.78
40850;BME280;26571;41.610;25.380;2023-05-12T02:20:22;98712.84;;;9.98;85.17
40850;BME280;26571;41.610;25.380;2023-05-12T02:22:48;98721.31;;;10.09;85.09
40850;BME280;26571;41.610;25.380;2023-05-12T02:25:13;98701.31;;;9.91;85.17
40850;BME280;26571;41.610;25.380;2023-05-12T02:27:39;98726.75;;;10.16;84.74
40850;BME280;26571;41.610;25.380;2023-05-12T02:30:05;98726.75;;;10.16;85.10
40850;BME280;26571;41.610;25.380;2023-05-12T02:32:30;98724.28;;;10.15;85.24
40850;BME280;26571;41.610;25.380;2023-05-12T02:34:56;98725.13;;;10.15;85.14
40850;BME280;26571;41.610;25.380;2023-05-12T02:37:22;98730.16;;;10.08;85.69
40850;BME280;26571;41.610;25.380;2023-05-12T02:39:47;98692.44;;;9.92;85.29
40850;BME280;26571;41.610;25.380;2023-05-12T02:42:13;98725.13;;;10.23;85.13
40850;BME280;26571;41.610;25.380;2023-05-12T02:44:38;98733.88;;;10.24;85.13
40850;BME280;26571;41.610;25.380;2023-05-12T02:47:04;98728.31;;;10.27;84.62
40850;BME280;26571;41.610;25.380;2023-05-12T02:49:29;98720.44;;;10.27;84.71
40850;BME280;26571;41.610;25.380;2023-05-12T02:51:56;98719.06;;;10.23;84.97
40850;BME280;26571;41.610;25.380;2023-05-12T02:54:22;98728.47;;;10.25;84.66
40850;BME280;26571;41.610;25.380;2023-05-12T02:56:47;98718.94;;;10.24;84.41
40850;BME280;26571;41.610;25.380;2023-05-12T02:59:12;98722.50;;;10.23;84.68
40850;BME280;26571;41.610;25.380;2023-05-12T03:01:38;98724.47;;;10.21;85.09
40850;BME280;26571;41.610;25.380;2023-05-12T03:04:03;98718.53;;;10.19;85.14
40850;BME280;26571;41.610;25.380;2023-05-12T03:06:29;98728.75;;;10.22;85.24
40850;BME280;26571;41.610;25.380;2023-05-12T03:08:54;98725.03;;;10.25;84.96
40850;BME280;26571;41.610;25.380;2023-05-12T03:11:21;98745.00;;;10.18;84.96
40850;BME280;26571;41.610;25.380;2023-05-12T03:13:46;98696.66;;;9.84;85.85
40850;BME280;26571;41.610;25.380;2023-05-12T03:16:12;98732.66;;;10.10;86.07
40850;BME280;26571;41.610;25.380;2023-05-12T03:18:37;98731.97;;;10.08;86.20
40850;BME280;26571;41.610;25.380;2023-05-12T03:21:03;98740.06;;;10.15;85.95
40850;BME280;26571;41.610;25.380;2023-05-12T03:23:29;98736.13;;;10.19;85.87
40850;BME280;26571;41.610;25.380;2023-05-12T03:25:54;98737.28;;;10.16;85.90
40850;BME280;26571;41.610;25.380;2023-05-12T03:28:20;98731.69;;;10.19;85.77
40850;BME280;26571;41.610;25.380;2023-05-12T03:30:47;98737.19;;;10.26;85.44
40850;BME280;26571;41.610;25.380;2023-05-12T03:33:12;98696.03;;;9.91;85.47
40850;BME280;26571;41.610;25.380;2023-05-12T03:35:38;98737.59;;;10.13;86.29
40850;BME280;26571;41.610;25.380;2023-05-12T03:38:03;98714.66;;;9.97;85.85
40850;BME280;26571;41.610;25.380;2023-05-12T03:40:29;98746.91;;;10.25;85.29
40850;BME280;26571;41.610;25.380;2023-05-12T03:42:54;98746.19;;;10.23;85.93
40850;BME280;26571;41.610;25.380;2023-05-12T03:45:20;98750.97;;;10.20;86.05
40850;BME280;26571;41.610;25.380;2023-05-12T03:47:46;98754.06;;;10.23;85.84
40850;BME280;26571;41.610;25.380;2023-05-12T03:50:11;98757.44;;;10.25;85.89
40850;BME280;26571;41.610;25.380;2023-05-12T03:52:37;98724.69;;;10.02;86.18
40850;BME280;26571;41.610;25.380;2023-05-12T03:55:05;98748.53;;;10.26;85.86
40850;BME280;26571;41.610;25.380;2023-05-12T03:57:31;98765.34;;;10.33;85.77
40850;BME280;26571;41.610;25.380;2023-05-12T03:59:58;98761.75;;;10.34;85.91
40850;BME280;26571;41.610;25.380;2023-05-12T04:02:24;98777.72;;;10.41;85.37
40850;BME280;26571;41.610;25.380;2023-05-12T04:04:49;98766.91;;;10.44;85.24
40850;BME280;26571;41.610;25.380;2023-05-12T04:07:15;98759.38;;;10.49;84.92
40850;BME280;26571;41.610;25.380;2023-05-12T04:09:40;98763.31;;;10.53;85.08
40850;BME280;26571;41.610;25.380;2023-05-12T04:12:07;98767.41;;;10.48;85.12
40850;BME280;26571;41.610;25.380;2023-05-12T04:14:33;98773.69;;;10.55;84.84
40850;BME280;26571;41.610;25.380;2023-05-12T04:16:58;98775.34;;;10.56;84.95
40850;BME280;26571;41.610;25.380;2023-05-12T04:19:24;98773.88;;;10.61;84.98
40850;BME280;26571;41.610;25.380;2023-05-12T04:21:49;98776.81;;;10.58;85.56
40850;BME280;26571;41.610;25.380;2023-05-12T04:24:14;98778.84;;;10.65;84.73
40850;BME280;26571;41.610;25.380;2023-05-12T04:26:40;98783.13;;;10.66;85.20
40850;BME280;26571;41.610;25.380;2023-05-12T04:29:05;98782.81;;;10.77;84.80
40850;BME280;26571;41.610;25.380;2023-05-12T04:31:31;98788.09;;;10.77;84.37
40850;BME280;26571;41.610;25.380;2023-05-12T04:33:56;98781.38;;;10.82;84.21
40850;BME280;26571;41.610;25.380;2023-05-12T04:36:22;98782.81;;;10.77;83.83
40850;BME280;26571;41.610;25.380;2023-05-12T04:38:47;98788.28;;;10.83;83.68
40850;BME280;26571;41.610;25.380;2023-05-12T04:41:13;98768.31;;;10.65;83.29
40850;BME280;26571;41.610;25.380;2023-05-12T04:43:38;98790.25;;;10.81;83.58
40850;BME280;26571;41.610;25.380;2023-05-12T04:46:03;98795.41;;;10.91;83.40
40850;BME280;26571;41.610;25.380;2023-05-12T04:48:29;98799.84;;;10.91;83.18
40850;BME280;26571;41.610;25.380;2023-05-12T04:50:57;98753.50;;;10.72;83.62
40850;BME280;26571;41.610;25.380;2023-05-12T04:53:22;98788.50;;;10.98;83.90
40850;BME280;26571;41.610;25.380;2023-05-12T04:55:48;98786.38;;;11.02;83.69
40850;BME280;26571;41.610;25.380;2023-05-12T04:58:14;98761.66;;;11.03;82.96
40850;BME280;26571;41.610;25.380;2023-05-12T05:00:39;98788.72;;;11.21;82.44
40850;BME280;26571;41.610;25.380;2023-05-12T05:03:05;98788.59;;;11.31;81.69
40850;BME280;26571;41.610;25.380;2023-05-12T05:05:31;98789.09;;;11.43;81.07
40850;BME280;26571;41.610;25.380;2023-05-12T05:07:56;98795.03;;;11.45;80.77
40850;BME280;26571;41.610;25.380;2023-05-12T05:10:22;98793.03;;;11.47;80.54
40850;BME280;26571;41.610;25.380;2023-05-12T05:12:47;98795.69;;;11.55;79.73
40850;BME280;26571;41.610;25.380;2023-05-12T05:15:13;98695.31;;;10.91;78.97
40850;BME280;26571;41.610;25.380;2023-05-12T05:17:38;98796.69;;;11.54;79.18
40850;BME280;26571;41.610;25.380;2023-05-12T05:20:04;98795.34;;;11.58;78.37
40850;BME280;26571;41.610;25.380;2023-05-12T05:22:31;98797.69;;;11.61;79.24
40850;BME280;26571;41.610;25.380;2023-05-12T05:24:56;98787.63;;;11.73;78.81
40850;BME280;26571;41.610;25.380;2023-05-12T05:27:22;98780.38;;;11.67;77.71
40850;BME280;26571;41.610;25.380;2023-05-12T05:29:47;98795.03;;;11.77;77.49
40850;BME280;26571;41.610;25.380;2023-05-12T05:32:13;98772.13;;;11.78;77.94
40850;BME280;26571;41.610;25.380;2023-05-12T05:34:39;98794.75;;;11.88;77.52
40850;BME280;26571;41.610;25.380;2023-05-12T05:37:04;98785.81;;;11.98;77.50
40850;BME280;26571;41.610;25.380;2023-05-12T05:39:30;98769.03;;;11.82;76.73
40850;BME280;26571;41.610;25.380;2023-05-12T05:41:56;98783.88;;;12.00;76.49
40850;BME280;26571;41.610;25.380;2023-05-12T05:44:23;98786.97;;;12.03;76.41
40850;BME280;26571;41.610;25.380;2023-05-12T05:46:49;98797.03;;;12.16;75.77
40850;BME280;26571;41.610;25.380;2023-05-12T05:49:15;98762.75;;;11.92;75.16
40850;BME280;26571;41.610;25.380;2023-05-12T05:51:40;98785.78;;;12.22;75.54
40850;BME280;26571;41.610;25.380;2023-05-12T05:54:05;98794.03;;;12.27;75.58
40850;BME280;26571;41.610;25.380;2023-05-12T05:56:31;98797.50;;;12.36;75.97
40850;BME280;26571;41.610;25.380;2023-05-12T05:58:57;98793.34;;;12.50;74.78
40850;BME280;26571;41.610;25.380;2023-05-12T06:01:27;98800.56;;;12.64;74.21
40850;BME280;26571;41.610;25.380;2023-05-12T06:03:53;98794.59;;;12.70;73.64
40850;BME280;26571;41.610;25.380;2023-05-12T06:06:18;98792.22;;;12.83;73.35
40850;BME280;26571;41.610;25.380;2023-05-12T06:08:43;98796.16;;;12.87;72.60
40850;BME280;26571;41.610;25.380;2023-05-12T06:11:09;98801.41;;;12.96;72.85
40850;BME280;26571;41.610;25.380;2023-05-12T06:13:35;98801.97;;;13.14;71.68
40850;BME280;26571;41.610;25.380;2023-05-12T06:16:00;98761.13;;;12.93;70.64
40850;BME280;26571;41.610;25.380;2023-05-12T06:18:26;98803.09;;;13.28;70.52
40850;BME280;26571;41.610;25.380;2023-05-12T06:20:51;98802.25;;;13.27;69.60
40850;BME280;26571;41.610;25.380;2023-05-12T06:23:17;98799.81;;;13.49;69.02
40850;BME280;26571;41.610;25.380;2023-05-12T06:25:42;98797.25;;;13.63;68.42
40850;BME280;26571;41.610;25.380;2023-05-12T06:28:08;98793.59;;;13.87;68.42
40850;BME280;26571;41.610;25.380;2023-05-12T06:30:33;98791.13;;;14.01;66.58
40850;BME280;26571;41.610;25.380;2023-05-12T06:32:59;98789.06;;;14.11;64.78
40850;BME280;26571;41.610;25.380;2023-05-12T06:35:25;98796.75;;;14.20;65.36
40850;BME280;26571;41.610;25.380;2023-05-12T06:37:50;98792.41;;;14.42;63.54
40850;BME280;26571;41.610;25.380;2023-05-12T06:40:16;98785.72;;;14.61;62.81
40850;BME280;26571;41.610;25.380;2023-05-12T06:42:41;98798.16;;;14.76;62.14
40850;BME280;26571;41.610;25.380;2023-05-12T06:45:07;98799.16;;;14.89;62.05
40850;BME280;26571;41.610;25.380;2023-05-12T06:47:33;98796.25;;;14.84;60.79
40850;BME280;26571;41.610;25.380;2023-05-12T06:49:59;98806.19;;;14.97;59.98
40850;BME280;26571;41.610;25.380;2023-05-12T06:52:24;98778.16;;;14.73;59.76
40850;BME280;26571;41.610;25.380;2023-05-12T06:54:50;98808.69;;;14.84;60.05
40850;BME280;26571;41.610;25.380;2023-05-12T06:57:15;98798.28;;;14.53;59.09
40850;BME280;26571;41.610;25.380;2023-05-12T06:59:41;98763.50;;;14.18;59.90
40850;BME280;26571;41.610;25.380;2023-05-12T07:02:06;98808.25;;;14.13;60.84
40850;BME280;26571;41.610;25.380;2023-05-12T07:04:32;98801.56;;;14.17;61.12
40850;BME280;26571;41.610;25.380;2023-05-12T07:06:57;98801.34;;;13.89;60.89
40850;BME280;26571;41.610;25.380;2023-05-12T07:09:22;98766.03;;;13.59;62.40
40850;BME280;26571;41.610;25.380;2023-05-12T07:11:48;98806.03;;;13.56;63.04
40850;BME280;26571;41.610;25.380;2023-05-12T07:14:14;98804.94;;;13.50;64.23
40850;BME280;26571;41.610;25.380;2023-05-12T07:16:39;98808.81;;;13.62;64.58
40850;BME280;26571;41.610;25.380;2023-05-12T07:19:05;98795.00;;;13.75;64.47
40850;BME280;26571;41.610;25.380;2023-05-12T07:21:33;98808.25;;;14.13;63.02
40850;BME280;26571;41.610;25.380;2023-05-12T07:23:58;98812.63;;;14.20;61.73
40850;BME280;26571;41.610;25.380;2023-05-12T07:26:24;98807.88;;;14.16;61.07
40850;BME280;26571;41.610;25.380;2023-05-12T07:28:50;98811.53;;;14.15;60.36
40850;BME280;26571;41.610;25.380;2023-05-12T07:31:16;98798.34;;;14.07;61.04
40850;BME280;26571;41.610;25.380;2023-05-12T07:33:42;98812.09;;;14.25;60.64
40850;BME280;26571;41.610;25.380;2023-05-12T07:36:07;98811.63;;;14.21;60.82
40850;BME280;26571;41.610;25.380;2023-05-12T07:38:33;98804.44;;;14.30;60.57
40850;BME280;26571;41.610;25.380;2023-05-12T07:40:59;98804.25;;;14.46;60.00
40850;BME280;26571;41.610;25.380;2023-05-12T07:43:25;98823.47;;;14.48;60.21
40850;BME280;26571;41.610;25.380;2023-05-12T07:45:50;98814.53;;;14.50;59.83
40850;BME280;26571;41.610;25.380;2023-05-12T07:48:16;98821.00;;;14.62;58.04
40850;BME280;26571;41.610;25.380;2023-05-12T07:50:41;98810.72;;;14.67;57.51
40850;BME280;26571;41.610;25.380;2023-05-12T07:53:07;98819.47;;;14.82;57.18
40850;BME280;26571;41.610;25.380;2023-05-12T07:55:32;98820.44;;;14.96;56.88
40850;BME280;26571;41.610;25.380;2023-05-12T07:57:58;98823.47;;;15.08;56.12
40850;BME280;26571;41.610;25.380;2023-05-12T08:00:23;98806.72;;;15.43;57.30
40850;BME280;26571;41.610;25.380;2023-05-12T08:02:49;98798.78;;;16.08;55.82
40850;BME280;26571;41.610;25.380;2023-05-12T08:05:14;98807.28;;;16.59;53.96
40850;BME280;26571;41.610;25.380;2023-05-12T08:07:40;98810.16;;;16.58;51.11
40850;BME280;26571;41.610;25.380;2023-05-12T08:10:09;98803.94;;;16.50;51.42
40850;BME280;26571;41.610;25.380;2023-05-12T08:12:35;98781.47;;;16.46;51.74
40850;BME280;26571;41.610;25.380;2023-05-12T08:15:01;98809.16;;;16.65;48.97
40850;BME280;26571;41.610;25.380;2023-05-12T08:17:26;98820.91;;;16.77;49.18
40850;BME280;26571;41.610;25.380;2023-05-12T08:19:51;98817.25;;;16.85;49.61
40850;BME280;26571;41.610;25.380;2023-05-12T08:22:17;98807.19;;;16.74;49.19
40850;BME280;26571;41.610;25.380;2023-05-12T08:24:43;98808.97;;;16.67;50.06
40850;BME280;26571;41.610;25.380;2023-05-12T08:27:09;98816.25;;;16.51;49.34
40850;BME280;26571;41.610;25.380;2023-05-12T08:29:35;98807.31;;;16.66;46.65
40850;BME280;26571;41.610;25.380;2023-05-12T08:32:01;98803.91;;;16.72;48.27
40850;BME280;26571;41.610;25.380;2023-05-12T08:34:26;98807.75;;;17.04;48.18
40850;BME280;26571;41.610;25.380;2023-05-12T08:36:52;98803.44;;;16.96;47.02
40850;BME280;26571;41.610;25.380;2023-05-12T08:39:18;98803.03;;;16.65;46.72
40850;BME280;26571;41.610;25.380;2023-05-12T08:41:51;98808.88;;;16.53;47.58
40850;BME280;26571;41.610;25.380;2023-05-12T08:44:20;98808.53;;;16.28;48.18
40850;BME280;26571;41.610;25.380;2023-05-12T08:46:47;98804.38;;;16.54;48.03
40850;BME280;26571;41.610;25.380;2023-05-12T08:49:16;98804.28;;;16.69;49.14
40850;BME280;26571;41.610;25.380;2023-05-12T08:51:46;98805.66;;;16.99;48.32
40850;BME280;26571;41.610;25.380;2023-05-12T08:54:12;98806.75;;;17.12;48.03
40850;BME280;26571;41.610;25.380;2023-05-12T08:56:39;98807.13;;;17.02;48.22
40850;BME280;26571;41.610;25.380;2023-05-12T08:59:07;98803.50;;;17.16;46.44
40850;BME280;26571;41.610;25.380;2023-05-12T09:01:34;98773.44;;;17.22;44.90
40850;BME280;26571;41.610;25.380;2023-05-12T09:03:59;98788.50;;;17.83;45.29
40850;BME280;26571;41.610;25.380;2023-05-12T09:06:25;98793.84;;;17.96;45.61
40850;BME280;26571;41.610;25.380;2023-05-12T09:08:51;98795.28;;;17.92;45.48
40850;BME280;26571;41.610;25.380;2023-05-12T09:11:16;98797.91;;;17.72;45.14
40850;BME280;26571;41.610;25.380;2023-05-12T09:13:53;98794.19;;;17.67;43.78
40850;BME280;26571;41.610;25.380;2023-05-12T09:16:27;98790.56;;;18.21;44.95
40850;BME280;26571;41.610;25.380;2023-05-12T09:18:58;98785.19;;;18.47;44.36
40850;BME280;26571;41.610;25.380;2023-05-12T09:21:23;98798.78;;;18.06;42.99
40850;BME280;26571;41.610;25.380;2023-05-12T09:24:04;98790.34;;;17.76;43.19
40850;BME280;26571;41.610;25.380;2023-05-12T09:26:47;98797.72;;;17.94;44.21
40850;BME280;26571;41.610;25.380;2023-05-12T09:29:13;98793.81;;;18.09;43.95
40850;BME280;26571;41.610;25.380;2023-05-12T09:31:51;98800.19;;;18.08;42.00
40850;BME280;26571;41.610;25.380;2023-05-12T09:34:17;98782.38;;;18.16;42.18
40850;BME280;26571;41.610;25.380;2023-05-12T09:36:43;98790.16;;;18.04;41.91
40850;BME280;26571;41.610;25.380;2023-05-12T09:39:12;98805.31;;;17.90;42.43
40850;BME280;26571;41.610;25.380;2023-05-12T09:41:39;98808.47;;;17.39;41.94
40850;BME280;26571;41.610;25.380;2023-05-12T09:44:05;98799.88;;;17.44;44.91
40850;BME280;26571;41.610;25.380;2023-05-12T09:46:31;98805.63;;;17.47;43.79
40850;BME280;26571;41.610;25.380;2023-05-12T09:48:57;98807.59;;;17.19;44.49
40850;BME280;26571;41.610;25.380;2023-05-12T09:51:23;98803.19;;;16.91;46.77
40850;BME280;26571;41.610;25.380;2023-05-12T09:53:49;98809.22;;;17.20;45.40
40850;BME280;26571;41.610;25.380;2023-05-12T09:56:16;98804.13;;;17.25;44.18
40850;BME280;26571;41.610;25.380;2023-05-12T09:58:44;98805.75;;;17.19;45.25
40850;BME280;26571;41.610;25.380;2023-05-12T10:01:16;98809.72;;;17.43;44.83
40850;BME280;26571;41.610;25.380;2023-05-12T10:03:44;98795.91;;;17.81;44.65
40850;BME280;26571;41.610;25.380;2023-05-12T10:06:13;98790.53;;;18.41;43.13
40850;BME280;26571;41.610;25.380;2023-05-12T10:08:51;98795.63;;;18.69;42.14
40850;BME280;26571;41.610;25.380;2023-05-12T10:11:18;98787.59;;;18.82;40.99
40850;BME280;26571;41.610;25.380;2023-05-12T10:13:45;98798.47;;;18.74;41.16
40850;BME280;26571;41.610;25.380;2023-05-12T10:16:11;98792.72;;;18.77;40.60
40850;BME280;26571;41.610;25.380;2023-05-12T10:18:38;98791.94;;;18.70;42.20
40850;BME280;26571;41.610;25.380;2023-05-12T10:21:05;98785.97;;;18.54;41.40
40850;BME280;26571;41.610;25.380;2023-05-12T10:23:32;98779.00;;;18.53;40.66
40850;BME280;26571;41.610;25.380;2023-05-12T10:25:59;98784.31;;;18.80;40.91
40850;BME280;26571;41.610;25.380;2023-05-12T10:28:29;98766.38;;;19.00;39.41
40850;BME280;26571;41.610;25.380;2023-05-12T10:30:58;98760.22;;;18.35;39.00
40850;BME280;26571;41.610;25.380;2023-05-12T10:33:24;98786.41;;;18.45;39.41
40850;BME280;26571;41.610;25.380;2023-05-12T10:35:50;98783.31;;;18.61;39.82
40850;BME280;26571;41.610;25.380;2023-05-12T10:38:16;98785.47;;;18.97;38.67
40850;BME280;26571;41.610;25.380;2023-05-12T10:40:59;98781.47;;;18.75;40.15
40850;BME280;26571;41.610;25.380;2023-05-12T10:43:38;98773.66;;;18.67;39.08
40850;BME280;26571;41.610;25.380;2023-05-12T10:46:09;98776.69;;;18.83;39.40
40850;BME280;26571;41.610;25.380;2023-05-12T10:48:36;98769.16;;;18.54;39.15
40850;BME280;26571;41.610;25.380;2023-05-12T10:51:07;98731.34;;;18.05;40.04
40850;BME280;26571;41.610;25.380;2023-05-12T10:53:33;98762.09;;;18.01;38.33
40850;BME280;26571;41.610;25.380;2023-05-12T10:56:02;98765.13;;;17.72;40.51
40850;BME280;26571;41.610;25.380;2023-05-12T10:58:29;98760.63;;;17.79;41.20
40850;BME280;26571;41.610;25.380;2023-05-12T11:01:03;98754.44;;;17.58;40.95
40850;BME280;26571;41.610;25.380;2023-05-12T11:03:29;98755.50;;;17.71;41.73
40850;BME280;26571;41.610;25.380;2023-05-12T11:06:03;98753.47;;;18.06;42.53
40850;BME280;26571;41.610;25.380;2023-05-12T11:08:29;98752.00;;;18.23;39.65
40850;BME280;26571;41.610;25.380;2023-05-12T11:11:00;98749.13;;;18.31;39.77
40850;BME280;26571;41.610;25.380;2023-05-12T11:13:25;98747.19;;;18.72;39.94
40850;BME280;26571;41.610;25.380;2023-05-12T11:15:53;98740.50;;;18.36;40.35
40850;BME280;26571;41.610;25.380;2023-05-12T11:18:21;98757.66;;;18.67;40.71
40850;BME280;26571;41.610;25.380;2023-05-12T11:20:47;98747.16;;;18.85;42.61
40850;BME280;26571;41.610;25.380;2023-05-12T11:23:23;98750.03;;;19.22;41.14
40850;BME280;26571;41.610;25.380;2023-05-12T11:25:49;98740.47;;;19.39;38.46
40850;BME280;26571;41.610;25.380;2023-05-12T11:28:15;98740.34;;;19.66;38.74
40850;BME280;26571;41.610;25.380;2023-05-12T11:30:49;98729.44;;;19.92;37.56
40850;BME280;26571;41.610;25.380;2023-05-12T11:33:18;98739.53;;;20.08;38.18
40850;BME280;26571;41.610;25.380;2023-05-12T11:35:45;98738.41;;;19.98;37.22
40850;BME280;26571;41.610;25.380;2023-05-12T11:38:15;98721.91;;;19.19;38.62
40850;BME280;26571;41.610;25.380;2023-05-12T11:40:41;98755.03;;;19.11;39.79
40850;BME280;26571;41.610;25.380;2023-05-12T11:43:10;98751.84;;;18.90;37.93
40850;BME280;26571;41.610;25.380;2023-05-12T11:45:36;98743.34;;;19.06;37.34
40850;BME280;26571;41.610;25.380;2023-05-12T11:48:06;98732.78;;;18.86;39.54
40850;BME280;26571;41.610;25.380;2023-05-12T11:50:32;98741.56;;;18.93;37.11
40850;BME280;26571;41.610;25.380;2023-05-12T11:52:58;98752.31;;;18.80;39.51
40850;BME280;26571;41.610;25.380;2023-05-12T11:55:24;98744.81;;;19.02;37.57
40850;BME280;26571;41.610;25.380;2023-05-12T11:58:00;98744.81;;;19.02;40.43
40850;BME280;26571;41.610;25.380;2023-05-12T12:00:27;98743.31;;;19.13;40.01
40850;BME280;26571;41.610;25.380;2023-05-12T12:03:07;98701.44;;;18.75;38.66
40850;BME280;26571;41.610;25.380;2023-05-12T12:05:33;98741.91;;;19.03;40.19
40850;BME280;26571;41.610;25.380;2023-05-12T12:08:10;98740.22;;;19.16;40.57
40850;BME280;26571;41.610;25.380;2023-05-12T12:10:38;98730.03;;;19.37;38.99
40850;BME280;26571;41.610;25.380;2023-05-12T12:13:03;98731.34;;;19.53;37.80
40850;BME280;26571;41.610;25.380;2023-05-12T12:15:29;98727.53;;;19.74;38.80
40850;BME280;26571;41.610;25.380;2023-05-12T12:17:54;98723.34;;;20.03;39.55
40850;BME280;26571;41.610;25.380;2023-05-12T12:20:20;98729.63;;;20.16;37.73
40850;BME280;26571;41.610;25.380;2023-05-12T12:22:46;98725.03;;;20.23;37.93
40850;BME280;26571;41.610;25.380;2023-05-12T12:25:11;98720.78;;;20.15;37.34
40850;BME280;26571;41.610;25.380;2023-05-12T12:27:37;98717.44;;;20.01;35.61
40850;BME280;26571;41.610;25.380;2023-05-12T12:30:02;98713.78;;;19.96;37.71
40850;BME280;26571;41.610;25.380;2023-05-12T12:32:28;98715.84;;;19.94;36.29
40850;BME280;26571;41.610;25.380;2023-05-12T12:34:54;98711.34;;;19.94;38.23
40850;BME280;26571;41.610;25.380;2023-05-12T12:37:24;98711.03;;;20.02;38.54
40850;BME280;26571;41.610;25.380;2023-05-12T12:39:49;98711.00;;;19.84;37.62
40850;BME280;26571;41.610;25.380;2023-05-12T12:42:15;98710.03;;;19.47;38.48
40850;BME280;26571;41.610;25.380;2023-05-12T12:44:40;98715.38;;;19.47;38.06
40850;BME280;26571;41.610;25.380;2023-05-12T12:47:06;98716.13;;;19.60;37.29
40850;BME280;26571;41.610;25.380;2023-05-12T12:49:31;98715.00;;;19.75;36.67